Terminal Aerodrome Forecast
Issued by NWS North Platte, NE

Home | Current Version | Previous Version | Text Only | Print | Product List | Glossary On
Versions: 1 2 3 4 5 6 7 8 9 10 11 12 13 14 15 16 17 18 19 20 21 22
559
FTUS43 KLBF 171817 RRA
TAFVTN
TAF
KVTN 171817Z 1718/1818 20014G20KT P6SM FEW090
     FM172300 17013G19KT P6SM SCT200
     FM180000 17013KT P6SM SCT200
     FM180600 18007KT P6SM BKN250
     FM181300 24006KT P6SM SCT150
     FM181400 32007KT P6SM SCT120
     FM181500 36007KT P6SM SCT120
     FM181700 04007KT P6SM SCT110=

USA.gov is the U.S. government's official web portal to all federal, state and local government web resources and services.